aviador You're here:

KFAM Decoded Metar

FARMINGTON in MO, USA
Report Time2017-09-23 19:56:00
UTC Time2017-09-23 20:06:09
Flight Rules vfr VFR
Wind120° at 05 kt
W.Decomp.*RWY 20: 0.7 kt HW 5 kt LCW
W.Rank120° ranks 35
Current wind is below 120° avg. (5.3)
Visibility9999 m
Phenomena:N/A
Clouds:Broken 060 Hf
Expected CloudBase > 6,000 ft AGL from Temp-Dew spread
Ceiling6,000 ft
Temp33°C (ISA +20)
Dew Point18°C (41% RH)
Heat Index34.0°C
QNH1017 hPa
Density Alt3,350 ft
Elevation945 ft
Report Wrong Elevation
Raw Report
KFAM 231956Z AUTO 12005KT 10SM BKN060 33/18 A3003 RMK AO2 SLP157
T03280183=

Extra information for KFAM:More info

Metar Taf Metar & Taf Last 4 Metars F.Rules Stats Wind Profile Meteogram Temp Stats Airport Information Weather charts Add Link Nearby VenuesMetar ALERT Operation Metar Decoded Social comments

AIRNAV info for KFAM